Terminal Aerodrome Forecast
Issued by NWS Charleston, WV

Current Version | Previous Version | Text Only | Print | Product List | Glossary Off
Versions: 1 2 3 4 5 6 7 8 9 10 11 12 13 14 15 16 17 18 19 20 21 22

000
FTUS41 KRLX 222328
TAFPKB
TAF
KPKB 222328Z 2300/2324 05004KT P6SM BKN200
     FM231400 12009G15KT P6SM SCT250
     FM232000 13009KT P6SM BKN070
     FM232200 11008G14KT P6SM OVC030=

USA.gov is the U.S. government's official web portal to all federal, state and local government web resources and services.